Time;durP1;ratioP1;P1;durP2;ratioP2;P2;SDS_P1;SDS_P2;PMS_P1;PMS_P2;Temp;Humidity;BMP_temperature;BMP_pressure;BME280_temperature;BME280_humidity;BME280_pressure;Samples;Min_cycle;Max_cycle;Signal;HPM_P1;HPM_P2
2023/06/14 00:02:00;;;;;;;11.10;9.10;;;;;;;12.72;100.00;95960.59;7398421;19;20379;-74
2023/06/14 00:04:27;;;;;;;10.67;8.23;;;;;;;12.70;100.00;95984.06;7395451;19;20449;-75
2023/06/14 00:06:56;;;;;;;12.63;7.63;;;;;;;12.45;100.00;95962.31;7399316;19;20376;-74
2023/06/14 00:09:23;;;;;;;7.47;6.77;;;;;;;12.37;100.00;95950.78;7396861;19;20795;-74
2023/06/14 00:11:50;;;;;;;10.27;7.13;;;;;;;12.46;100.00;95974.47;7397916;19;20380;-74
2023/06/14 00:14:17;;;;;;;10.40;6.40;;;;;;;12.67;100.00;95982.09;7395393;19;20404;-74
2023/06/14 00:16:44;;;;;;;9.13;5.60;;;;;;;12.32;100.00;95958.25;7397653;19;20929;-74
2023/06/14 00:19:11;;;;;;;8.60;7.80;;;;;;;12.32;100.00;95977.56;7396425;19;20372;-74
2023/06/14 00:21:39;;;;;;;9.70;7.20;;;;;;;12.19;100.00;95981.44;7397750;19;20368;-75
2023/06/14 00:24:07;;;;;;;6.80;6.17;;;;;;;12.07;100.00;95965.66;7395648;19;20417;-74
2023/06/14 00:26:34;;;;;;;7.40;6.63;;;;;;;12.20;100.00;95969.72;7398213;19;20398;-74
2023/06/14 00:29:01;;;;;;;8.93;8.00;;;;;;;12.50;100.00;95977.19;7395906;19;20380;-74
2023/06/14 00:31:30;;;;;;;8.30;7.37;;;;;;;12.76;100.00;95989.84;7397330;19;20404;-74
2023/06/14 00:33:57;;;;;;;9.63;8.27;;;;;;;12.77;100.00;95970.94;7394462;19;20968;-74
2023/06/14 00:36:23;;;;;;;13.10;8.20;;;;;;;12.74;100.00;95968.97;7399903;19;20341;-74
2023/06/14 00:38:50;;;;;;;9.73;8.17;;;;;;;12.72;100.00;95982.59;7395954;19;20724;-74
2023/06/14 00:41:17;;;;;;;12.40;8.97;;;;;;;11.98;100.00;95959.75;7396252;19;20341;-73
2023/06/14 00:43:44;;;;;;;10.33;8.10;;;;;;;12.23;100.00;95955.00;7396176;19;20426;-73
2023/06/14 00:46:11;;;;;;;7.70;6.90;;;;;;;12.42;100.00;95966.44;7394487;19;20372;-73
2023/06/14 00:48:40;;;;;;;7.77;6.90;;;;;;;12.41;100.00;95956.16;7396592;19;20380;-73
2023/06/14 00:51:07;;;;;;;7.13;6.40;;;;;;;12.37;100.00;95957.97;7394228;19;20901;-73
2023/06/14 00:53:35;;;;;;;6.03;5.53;;;;;;;12.60;100.00;95966.81;7394507;19;20440;-73
2023/06/14 00:56:03;;;;;;;6.10;5.50;;;;;;;12.63;100.00;95960.03;7396193;19;20345;-73
2023/06/14 00:58:32;;;;;;;6.40;5.33;;;;;;;12.64;100.00;95964.22;7396245;19;20390;-73
2023/06/14 01:00:59;;;;;;;6.33;5.73;;;;;;;12.42;100.00;95958.47;7394543;19;20417;-73
2023/06/14 01:03:28;;;;;;;6.60;5.27;;;;;;;12.56;100.00;95973.16;7397509;19;20364;-74
2023/06/14 01:06:29;;;;;;;6.37;5.50;;;;;;;12.50;100.00;95966.56;7394002;19;20405;-73
2023/06/14 01:09:05;;;;;;;6.77;5.53;;;;;;;12.22;100.00;95974.69;7390857;19;20458;-73
2023/06/14 01:11:40;;;;;;;5.23;4.77;;;;;;;12.09;100.00;95945.63;7395574;19;20945;-73
2023/06/14 01:14:09;;;;;;;6.20;5.57;;;;;;;12.03;100.00;95936.44;7392405;19;20440;-73
2023/06/14 01:16:39;;;;;;;7.00;4.87;;;;;;;12.44;100.00;95966.09;7397391;19;20360;-73
2023/06/14 01:19:13;;;;;;;6.90;5.87;;;;;;;12.03;100.00;95938.31;7394818;19;20399;-73
2023/06/14 01:21:41;;;;;;;5.97;5.47;;;;;;;12.30;100.00;95966.56;7397560;19;20863;-73
2023/06/14 01:24:10;;;;;;;7.47;4.80;;;;;;;11.98;100.00;95935.91;7393735;19;20432;-73
2023/06/14 01:26:46;;;;;;;7.30;6.43;;;;;;;12.06;100.00;95967.53;7393426;19;20469;-73
2023/06/14 01:29:17;;;;;;;5.83;5.33;;;;;;;12.03;100.00;95964.81;7394843;19;20376;-72
2023/06/14 01:31:45;;;;;;;5.93;5.43;;;;;;;12.05;100.00;95938.72;7394259;19;20357;-72
2023/06/14 01:34:12;;;;;;;6.13;5.60;;;;;;;12.35;100.00;95965.50;7393731;19;20429;-73
2023/06/14 01:36:41;;;;;;;6.70;5.57;;;;;;;12.27;100.00;95971.75;7398474;19;20364;-73
2023/06/14 01:39:12;;;;;;;8.07;5.90;;;;;;;11.73;100.00;95970.50;7402328;19;20392;-73
2023/06/14 01:41:39;;;;;;;6.13;5.63;;;;;;;11.61;100.00;95978.50;7401176;19;20401;-73
2023/06/14 01:44:07;;;;;;;8.20;6.10;;;;;;;11.43;100.00;95964.84;7400930;19;20786;-73
2023/06/14 01:46:35;;;;;;;6.40;5.90;;;;;;;11.02;100.00;95973.22;7401053;19;20344;-73
2023/06/14 01:49:03;;;;;;;8.90;5.60;;;;;;;11.48;100.00;95971.75;7402438;19;20411;-72
2023/06/14 01:51:32;;;;;;;7.10;6.10;;;;;;;11.63;100.00;95967.59;7400976;19;20441;-73
2023/06/14 01:54:00;;;;;;;6.00;5.30;;;;;;;11.65;100.00;95957.44;7400942;19;20420;-73
2023/06/14 01:56:27;;;;;;;6.93;6.23;;;;;;;11.80;100.00;95975.22;7401232;19;20387;-73
2023/06/14 01:58:54;;;;;;;6.60;6.00;;;;;;;11.92;100.00;95969.84;7402679;19;20431;-73
2023/06/14 02:01:21;;;;;;;6.73;5.63;;;;;;;11.95;100.00;95977.09;7401313;19;20766;-73
2023/06/14 02:03:49;;;;;;;8.37;5.20;;;;;;;11.93;100.00;95981.22;7401746;19;20412;-73
2023/06/14 02:06:16;;;;;;;5.87;5.27;;;;;;;11.72;100.00;95952.31;7401256;19;20738;-73
2023/06/14 02:08:42;;;;;;;7.17;6.57;;;;;;;11.45;100.00;95988.31;7404347;19;20364;-73
2023/06/14 02:11:09;;;;;;;6.43;5.80;;;;;;;11.48;100.00;95969.09;7430878;19;20373;-73
2023/06/14 02:13:36;;;;;;;8.67;6.23;;;;;;;11.51;100.00;95989.63;7436325;19;20392;-73
2023/06/14 02:16:05;;;;;;;7.27;6.57;;;;;;;11.23;100.00;95985.16;7430754;19;20870;-72
2023/06/14 02:18:32;;;;;;;6.93;5.17;;;;;;;11.56;100.00;95978.78;7399297;19;20356;-73
2023/06/14 02:20:59;;;;;;;8.70;6.67;;;;;;;11.27;100.00;95952.72;7401025;19;20377;-73
2023/06/14 02:23:26;;;;;;;8.10;5.20;;;;;;;11.35;100.00;95959.69;7399273;19;20964;-73
2023/06/14 02:25:53;;;;;;;10.00;5.67;;;;;;;11.20;100.00;95958.56;7401561;19;20372;-73
2023/06/14 02:28:20;;;;;;;7.03;5.73;;;;;;;11.38;100.00;95973.03;7398872;19;21038;-73
2023/06/14 02:30:47;;;;;;;7.83;5.50;;;;;;;11.24;100.00;95976.09;7398860;19;20782;-73
2023/06/14 02:33:14;;;;;;;8.10;6.03;;;;;;;11.31;100.00;95969.44;7397830;19;20349;-73
2023/06/14 02:35:41;;;;;;;8.90;5.47;;;;;;;11.20;100.00;95985.78;7400291;19;20400;-73
2023/06/14 02:38:08;;;;;;;6.90;5.10;;;;;;;11.24;100.00;95970.81;7398982;19;20413;-73
2023/06/14 02:40:35;;;;;;;6.67;5.97;;;;;;;11.48;100.00;95993.69;7400569;19;20368;-73
2023/06/14 02:43:02;;;;;;;7.70;6.23;;;;;;;11.45;100.00;95965.28;7419339;19;20385;-73
2023/06/14 02:45:29;;;;;;;10.03;6.00;;;;;;;11.29;100.00;95976.94;7424210;19;20423;-73
2023/06/14 02:47:55;;;;;;;6.97;6.10;;;;;;;10.93;100.00;95965.41;7397730;19;20380;-73
2023/06/14 02:50:23;;;;;;;7.27;5.63;;;;;;;10.92;100.00;95967.28;7400313;19;20384;-73
2023/06/14 02:52:52;;;;;;;6.33;5.73;;;;;;;11.19;100.00;95983.50;7397597;19;20379;-73
2023/06/14 02:55:19;;;;;;;6.70;6.10;;;;;;;11.47;100.00;95978.16;7397999;19;20919;-73
2023/06/14 02:57:48;;;;;;;6.33;5.83;;;;;;;11.51;100.00;95974.50;7397792;19;20412;-73
2023/06/14 03:00:16;;;;;;;5.73;5.23;;;;;;;11.23;100.00;95987.78;7400025;19;20377;-73
2023/06/14 03:02:46;;;;;;;11.20;6.77;;;;;;;11.39;100.00;95995.00;7398423;19;20420;-73
2023/06/14 03:05:14;;;;;;;6.40;5.40;;;;;;;11.40;100.00;95973.47;7397958;19;20499;-73
2023/06/14 03:07:44;;;;;;;8.37;6.60;;;;;;;11.27;100.00;95965.94;7398591;19;20408;-73
2023/06/14 03:10:12;;;;;;;6.87;6.27;;;;;;;11.35;100.00;95963.16;7399714;19;20393;-73
2023/06/14 03:12:42;;;;;;;7.97;6.27;;;;;;;11.48;100.00;95974.41;7397830;19;20754;-73
2023/06/14 03:15:12;;;;;;;9.20;6.67;;;;;;;11.57;100.00;95988.25;7398383;19;20440;-73
2023/06/14 03:17:45;;;;;;;7.73;7.13;;;;;;;11.77;100.00;96000.50;7398416;19;20914;-73
2023/06/14 03:20:15;;;;;;;6.80;6.10;;;;;;;11.74;100.00;95992.44;7396995;19;20425;-73
2023/06/14 03:22:45;;;;;;;6.27;5.77;;;;;;;11.65;100.00;95997.16;7395421;19;20391;-73
2023/06/14 03:25:13;;;;;;;8.20;7.20;;;;;;;11.59;100.00;95990.56;7395743;19;20449;-73
2023/06/14 03:27:41;;;;;;;8.10;7.40;;;;;;;11.39;100.00;95993.13;7398746;19;20388;-72
2023/06/14 03:30:09;;;;;;;7.07;6.50;;;;;;;11.51;100.00;95994.94;7397144;19;20378;-73
2023/06/14 03:32:36;;;;;;;7.17;6.57;;;;;;;11.40;100.00;95991.22;7399461;19;20372;-73
2023/06/14 03:35:04;;;;;;;7.97;7.23;;;;;;;11.48;100.00;96006.19;7394656;19;21005;-73
2023/06/14 03:37:32;;;;;;;12.77;7.50;;;;;;;11.45;100.00;95997.03;7398274;19;20404;-73
2023/06/14 03:40:00;;;;;;;7.47;6.77;;;;;;;11.46;100.00;95990.63;7397120;19;20445;-73
2023/06/14 03:42:30;;;;;;;7.33;6.60;;;;;;;11.37;100.00;95986.63;7395747;19;20374;-73
2023/06/14 03:44:57;;;;;;;6.60;6.00;;;;;;;11.29;100.00;96006.06;7396152;19;20440;-73
2023/06/14 03:47:24;;;;;;;8.93;6.13;;;;;;;11.50;100.00;96025.16;7398786;19;20371;-73
2023/06/14 03:49:51;;;;;;;8.63;7.43;;;;;;;11.61;100.00;96020.88;7396978;19;20365;-73
2023/06/14 03:52:18;;;;;;;6.80;6.20;;;;;;;11.54;100.00;96000.31;7400549;19;20426;-73
2023/06/14 03:54:46;;;;;;;7.53;6.73;;;;;;;11.58;100.00;96026.88;7392690;19;20433;-73
2023/06/14 03:57:19;;;;;;;8.67;7.97;;;;;;;11.51;100.00;96026.69;7398513;19;20376;-73
2023/06/14 03:59:48;;;;;;;7.83;7.13;;;;;;;11.60;100.00;96027.28;7394577;19;20405;-73
2023/06/14 04:02:16;;;;;;;8.00;7.20;;;;;;;11.43;100.00;96015.13;7398593;19;20854;-73
2023/06/14 04:04:45;;;;;;;8.60;7.37;;;;;;;11.69;100.00;96048.31;7395277;19;20495;-73
2023/06/14 04:07:12;;;;;;;9.33;8.40;;;;;;;11.60;100.00;96037.88;7398297;19;20345;-73
2023/06/14 04:09:40;;;;;;;15.10;8.23;;;;;;;11.84;100.00;96053.66;7397060;19;20368;-73
2023/06/14 04:12:08;;;;;;;7.60;6.90;;;;;;;11.87;100.00;96044.25;7398247;19;20385;-73
2023/06/14 04:14:35;;;;;;;8.20;7.30;;;;;;;11.76;100.00;96033.41;7395099;19;20804;-73
2023/06/14 04:17:02;;;;;;;8.90;8.03;;;;;;;11.81;100.00;96021.81;7396839;19;20392;-73
2023/06/14 04:19:30;;;;;;;8.90;8.00;;;;;;;11.97;100.00;96043.75;7396885;19;20750;-73
2023/06/14 04:22:01;;;;;;;9.07;8.27;;;;;;;12.06;100.00;96040.97;7397029;19;20410;-73
2023/06/14 04:24:31;;;;;;;8.23;7.53;;;;;;;12.09;100.00;96019.06;7403062;19;20441;-73
2023/06/14 04:27:00;;;;;;;7.90;7.20;;;;;;;12.26;100.00;96047.09;7422179;19;20368;-73
2023/06/14 04:29:29;;;;;;;8.77;7.93;;;;;;;12.33;100.00;96049.91;7405540;19;20455;-73
2023/06/14 04:32:01;;;;;;;8.53;7.73;;;;;;;12.40;100.00;96050.84;7396057;19;20481;-73
2023/06/14 04:34:33;;;;;;;9.47;8.57;;;;;;;12.22;100.00;96019.75;7396132;19;20438;-73
2023/06/14 04:37:02;;;;;;;8.73;7.93;;;;;;;12.71;100.00;96054.56;7395729;19;20368;-73
2023/06/14 04:39:35;;;;;;;8.63;7.93;;;;;;;13.01;100.00;96052.94;7397501;19;20753;-73
2023/06/14 04:42:03;;;;;;;7.67;7.07;;;;;;;12.73;100.00;96005.34;7396143;19;20372;-73
2023/06/14 04:44:32;;;;;;;8.20;7.50;;;;;;;13.15;100.00;96047.13;7396399;19;20999;-73
2023/06/14 04:47:01;;;;;;;9.43;8.17;;;;;;;12.92;100.00;96025.81;7395814;19;20448;-73
2023/06/14 04:49:32;;;;;;;8.97;7.90;;;;;;;13.00;100.00;96051.38;7394444;19;20444;-73
2023/06/14 04:52:01;;;;;;;8.23;7.20;;;;;;;13.34;100.00;96033.09;7396181;19;20935;-73
2023/06/14 04:54:37;;;;;;;12.07;7.37;;;;;;;13.24;100.00;96041.66;7393731;19;20448;-73
2023/06/14 04:57:09;;;;;;;8.30;7.50;;;;;;;13.01;100.00;96031.69;7396016;19;20932;-73
2023/06/14 04:59:36;;;;;;;8.03;7.23;;;;;;;13.00;100.00;96032.81;7395241;19;20388;-73
2023/06/14 05:02:03;;;;;;;8.50;7.70;;;;;;;12.99;100.00;96015.34;7396385;19;20568;-73
2023/06/14 05:04:30;;;;;;;7.73;7.10;;;;;;;13.41;100.00;96061.69;7394325;19;20444;-73
2023/06/14 05:06:58;;;;;;;7.37;6.40;;;;;;;13.47;100.00;96053.09;7396193;19;20488;-73
2023/06/14 05:09:25;;;;;;;7.00;6.40;;;;;;;13.67;100.00;96059.16;7394676;19;20732;-73
2023/06/14 05:11:52;;;;;;;7.27;6.57;;;;;;;13.83;100.00;96046.53;7403647;19;20345;-73
2023/06/14 05:14:22;;;;;;;6.90;6.27;;;;;;;13.82;100.00;96060.94;7409545;19;20449;-73
2023/06/14 05:16:50;;;;;;;10.73;6.63;;;;;;;13.82;100.00;96057.50;7410602;19;20388;-73
2023/06/14 05:19:18;;;;;;;6.67;5.40;;;;;;;13.59;100.00;96034.34;7402532;19;20384;-73
2023/06/14 05:21:45;;;;;;;7.53;6.37;;;;;;;13.83;100.00;96054.50;7403226;19;20356;-73
2023/06/14 05:24:12;;;;;;;6.00;5.50;;;;;;;13.77;100.00;96044.53;7401223;19;20980;-73
2023/06/14 05:26:39;;;;;;;7.10;5.80;;;;;;;13.78;100.00;96040.75;7401916;19;20408;-73
2023/06/14 05:29:06;;;;;;;6.70;6.10;;;;;;;14.26;100.00;96046.47;7399851;19;20408;-73
2023/06/14 05:31:33;;;;;;;7.93;5.93;;;;;;;14.17;100.00;96046.72;7400583;19;20416;-73
2023/06/14 05:34:00;;;;;;;7.27;6.50;;;;;;;14.15;100.00;96048.94;7401893;19;20437;-73
2023/06/14 05:36:27;;;;;;;8.10;6.37;;;;;;;14.00;100.00;96055.16;7402504;19;20388;-73
2023/06/14 05:38:59;;;;;;;6.30;5.70;;;;;;;14.37;100.00;96060.69;7402812;19;20384;-73
2023/06/14 05:41:27;;;;;;;6.00;5.40;;;;;;;14.62;100.00;96082.38;7411736;19;20381;-73
2023/06/14 05:43:55;;;;;;;5.70;5.20;;;;;;;14.65;100.00;96079.75;7403635;19;20425;-73
2023/06/14 05:46:25;;;;;;;6.60;5.73;;;;;;;14.45;100.00;96083.66;7401901;19;20980;-73
2023/06/14 05:48:52;;;;;;;6.10;5.60;;;;;;;14.35;100.00;96065.59;7412479;19;20341;-73
2023/06/14 05:51:20;;;;;;;6.03;5.40;;;;;;;14.92;100.00;96077.88;7429987;19;20349;-73
2023/06/14 05:53:50;;;;;;;5.97;5.20;;;;;;;15.29;100.00;96083.28;7406447;19;20440;-73
2023/06/14 05:56:18;;;;;;;6.47;5.70;;;;;;;14.81;100.00;96073.53;7402603;19;20381;-73
2023/06/14 05:58:46;;;;;;;7.70;6.43;;;;;;;14.85;100.00;96066.38;7402377;19;20389;-73
2023/06/14 06:01:13;;;;;;;5.80;5.30;;;;;;;15.35;100.00;96097.81;7403392;19;20345;-73
2023/06/14 06:03:41;;;;;;;6.77;6.17;;;;;;;15.32;100.00;96100.44;7400914;19;20453;-73
2023/06/14 06:06:08;;;;;;;5.40;4.87;;;;;;;15.53;100.00;96084.72;7403019;19;20364;-73
2023/06/14 06:08:35;;;;;;;7.10;5.20;;;;;;;15.64;100.00;96098.19;7401866;19;20342;-73
2023/06/14 06:11:02;;;;;;;5.33;4.93;;;;;;;15.76;100.00;96081.97;7405615;19;20766;-73
2023/06/14 06:13:29;;;;;;;6.10;5.50;;;;;;;15.85;100.00;96077.09;7409421;19;20369;-74
2023/06/14 06:15:56;;;;;;;6.20;5.70;;;;;;;15.91;100.00;96107.63;7409070;19;20397;-73
2023/06/14 06:18:23;;;;;;;6.60;5.80;;;;;;;15.95;100.00;96081.75;7402129;19;20366;-73
2023/06/14 06:20:50;;;;;;;6.00;5.40;;;;;;;16.06;98.04;96092.53;7401859;19;20378;-73
2023/06/14 06:23:17;;;;;;;5.20;4.73;;;;;;;16.41;98.16;96116.06;7409108;19;20392;-73
2023/06/14 06:25:45;;;;;;;5.77;5.27;;;;;;;16.09;95.59;96096.34;7428023;19;20366;-74
2023/06/14 06:28:12;;;;;;;6.07;4.60;;;;;;;16.28;97.63;96114.81;7428729;19;20362;-75
2023/06/14 06:30:39;;;;;;;6.10;4.67;;;;;;;16.52;94.00;96121.50;7421841;19;20376;-75
2023/06/14 06:33:06;;;;;;;6.23;4.20;;;;;;;16.72;92.29;96108.72;7429148;19;20422;-74
2023/06/14 06:35:33;;;;;;;6.80;5.80;;;;;;;16.56;94.49;96125.00;7427124;19;20452;-75
2023/06/14 06:38:01;;;;;;;5.03;4.30;;;;;;;16.70;92.39;96078.97;7400923;19;20342;-75
2023/06/14 06:40:28;;;;;;;4.53;4.13;;;;;;;17.12;90.87;96113.94;7402094;19;20373;-75
2023/06/14 06:42:55;;;;;;;5.50;4.93;;;;;;;16.48;91.12;96126.06;7401021;19;20358;-75
2023/06/14 06:45:25;;;;;;;5.40;5.00;;;;;;;16.73;90.68;96097.69;7398089;19;20440;-75
2023/06/14 06:47:52;;;;;;;5.57;4.80;;;;;;;16.84;89.70;96121.78;7399595;19;20917;-75
2023/06/14 06:50:19;;;;;;;5.00;4.60;;;;;;;16.51;91.74;96126.06;7400477;19;20376;-75
2023/06/14 06:52:46;;;;;;;5.20;4.80;;;;;;;16.56;91.50;96116.97;7398260;19;20746;-75
2023/06/14 06:55:14;;;;;;;4.87;4.33;;;;;;;16.80;90.04;96110.28;7399240;19;20398;-75
2023/06/14 06:57:42;;;;;;;6.03;4.77;;;;;;;17.01;90.66;96126.47;7398321;19;20372;-75
2023/06/14 07:00:09;;;;;;;7.33;5.10;;;;;;;17.36;91.67;96138.47;7399737;19;20393;-75
2023/06/14 07:02:36;;;;;;;5.77;5.27;;;;;;;17.78;87.73;96147.88;7398009;19;20704;-75
2023/06/14 07:05:04;;;;;;;4.87;4.47;;;;;;;18.28;84.10;96154.88;7398411;19;20441;-75
2023/06/14 07:07:31;;;;;;;4.97;4.57;;;;;;;17.94;84.18;96153.66;7397790;19;20354;-75
2023/06/14 07:10:00;;;;;;;4.53;4.20;;;;;;;18.48;83.57;96155.28;7400990;19;20885;-75
2023/06/14 07:12:27;;;;;;;5.80;4.30;;;;;;;18.91;82.54;96155.31;7398221;19;20381;-75
2023/06/14 07:14:54;;;;;;;8.30;6.13;;;;;;;18.37;82.10;96133.09;7398046;19;20465;-75
2023/06/14 07:17:21;;;;;;;6.00;5.50;;;;;;;18.55;80.48;96144.56;7401083;19;20354;-75
2023/06/14 07:19:47;;;;;;;5.60;4.80;;;;;;;18.18;80.15;96146.84;7399322;19;20377;-75
2023/06/14 07:22:15;;;;;;;4.93;4.53;;;;;;;18.62;81.11;96162.56;7397424;19;20406;-75
2023/06/14 07:24:42;;;;;;;5.60;5.10;;;;;;;17.78;82.16;96154.00;7399396;19;20377;-75
2023/06/14 07:27:10;;;;;;;5.10;4.60;;;;;;;17.98;82.40;96139.13;7398280;19;20405;-75
2023/06/14 07:29:40;;;;;;;5.03;4.63;;;;;;;17.71;83.97;96160.06;7399692;19;20376;-75
2023/06/14 07:32:07;;;;;;;5.00;4.50;;;;;;;18.06;84.92;96166.69;7397704;19;20405;-75
2023/06/14 07:34:34;;;;;;;6.33;5.73;;;;;;;18.39;82.63;96165.59;7397846;19;20438;-75
2023/06/14 07:37:02;;;;;;;5.40;4.53;;;;;;;18.33;81.87;96161.78;7397555;19;20388;-75
2023/06/14 07:39:29;;;;;;;4.70;4.30;;;;;;;18.71;79.82;96141.56;7400332;19;20354;-75
2023/06/14 07:41:56;;;;;;;4.93;4.50;;;;;;;18.92;79.29;96172.16;7397152;19;20406;-75
2023/06/14 07:44:23;;;;;;;6.10;4.77;;;;;;;18.64;78.85;96138.09;7396727;19;20816;-75
2023/06/14 07:46:50;;;;;;;4.97;4.57;;;;;;;19.31;77.24;96151.41;7397938;19;20489;-75
2023/06/14 07:49:17;;;;;;;4.07;3.80;;;;;;;19.23;76.74;96175.94;7396490;19;20405;-75
2023/06/14 07:51:44;;;;;;;6.17;5.00;;;;;;;18.74;77.78;96159.53;7399900;19;20898;-75
2023/06/14 07:54:11;;;;;;;7.47;4.77;;;;;;;18.96;73.76;96162.19;7395782;19;20437;-75
2023/06/14 07:56:38;;;;;;;10.00;4.93;;;;;;;18.51;73.12;96156.44;7399236;19;20390;-75
2023/06/14 07:59:10;;;;;;;4.90;4.50;;;;;;;18.93;73.80;96157.59;7397824;19;20347;-75
2023/06/14 08:01:36;;;;;;;5.80;4.57;;;;;;;19.04;73.34;96172.53;7397527;19;20424;-75
2023/06/14 08:04:04;;;;;;;6.83;4.40;;;;;;;19.19;73.05;96166.00;7395303;19;20432;-75
2023/06/14 08:06:31;;;;;;;6.23;5.67;;;;;;;19.28;72.30;96176.31;7397785;19;20453;-75
2023/06/14 08:08:58;;;;;;;4.83;4.43;;;;;;;19.34;71.35;96174.75;7396924;19;20444;-75
2023/06/14 08:11:25;;;;;;;4.70;4.30;;;;;;;19.16;71.43;96163.31;7397650;19;20382;-75
2023/06/14 08:13:52;;;;;;;4.73;4.33;;;;;;;19.27;72.26;96174.03;7395187;19;20396;-75
2023/06/14 08:16:19;;;;;;;4.10;3.80;;;;;;;19.63;69.00;96178.19;7395648;19;20394;-74
2023/06/14 08:18:46;;;;;;;4.47;4.17;;;;;;;19.42;69.33;96154.84;7395905;19;20383;-74
2023/06/14 08:21:14;;;;;;;5.77;5.27;;;;;;;19.40;69.55;96175.91;7397278;19;20381;-74
2023/06/14 08:23:44;;;;;;;4.67;4.27;;;;;;;19.34;70.10;96155.22;7394936;19;20949;-74
2023/06/14 08:26:11;;;;;;;4.67;3.90;;;;;;;19.25;69.79;96187.81;7398361;19;20355;-74
2023/06/14 08:28:38;;;;;;;7.03;4.00;;;;;;;19.32;69.14;96181.66;7395880;19;20688;-74
2023/06/14 08:31:05;;;;;;;5.00;4.03;;;;;;;20.00;68.55;96188.38;7395255;19;20430;-74
2023/06/14 08:33:35;;;;;;;4.47;4.00;;;;;;;20.00;67.07;96183.00;7395049;19;20384;-74
2023/06/14 08:36:02;;;;;;;4.30;3.90;;;;;;;20.11;66.35;96198.31;7397235;19;20355;-74
2023/06/14 08:38:29;;;;;;;5.03;4.40;;;;;;;20.12;66.33;96175.66;7395939;19;20391;-74
2023/06/14 08:40:58;;;;;;;4.50;4.10;;;;;;;19.77;63.42;96194.22;7396808;19;20385;-75
2023/06/14 08:43:25;;;;;;;4.17;3.80;;;;;;;20.04;63.12;96156.94;7395630;19;20367;-75
2023/06/14 08:45:59;;;;;;;4.23;3.93;;;;;;;19.92;65.76;96180.75;7396613;19;20354;-74
2023/06/14 08:48:26;;;;;;;4.30;4.00;;;;;;;19.96;65.31;96179.56;7397422;19;20373;-75
2023/06/14 08:51:01;;;;;;;4.47;4.13;;;;;;;20.08;65.62;96165.72;7396976;19;20385;-75
2023/06/14 08:53:31;;;;;;;9.90;5.90;;;;;;;20.22;64.19;96161.41;7396660;19;20379;-75
2023/06/14 08:56:04;;;;;;;4.50;4.10;;;;;;;20.43;65.31;96187.41;7394482;19;20404;-75
2023/06/14 08:58:33;;;;;;;5.30;4.90;;;;;;;20.13;65.50;96169.13;7419416;19;20415;-75
2023/06/14 09:01:04;;;;;;;4.60;4.20;;;;;;;20.73;62.93;96190.28;7415615;19;20737;-75
2023/06/14 09:03:32;;;;;;;4.40;4.00;;;;;;;20.95;60.47;96185.47;7396504;19;20399;-75
2023/06/14 09:06:00;;;;;;;4.37;3.97;;;;;;;21.16;60.16;96192.59;7395339;19;20352;-74
2023/06/14 09:08:31;;;;;;;3.90;3.60;;;;;;;20.54;61.70;96193.47;7398160;19;20347;-74
2023/06/14 09:10:58;;;;;;;5.60;3.93;;;;;;;20.52;62.21;96188.50;7394916;19;20376;-74
2023/06/14 09:13:26;;;;;;;6.53;4.10;;;;;;;20.50;62.72;96187.38;7397846;19;20374;-74
2023/06/14 09:15:57;;;;;;;4.23;3.93;;;;;;;20.41;62.42;96195.06;7394190;19;20446;-74
2023/06/14 09:18:47;;;;;;;4.90;3.80;;;;;;;21.43;61.04;96196.22;7393613;19;20417;-74
2023/06/14 09:21:16;;;;;;;6.20;3.40;;;;;;;20.37;60.14;96182.41;7396190;19;20352;-74
2023/06/14 09:23:45;;;;;;;3.90;3.60;;;;;;;20.91;59.03;96198.19;7395247;19;20399;-74
2023/06/14 09:26:17;;;;;;;4.30;3.90;;;;;;;20.67;60.14;96189.91;7396389;19;20391;-74
2023/06/14 09:28:46;;;;;;;6.70;3.90;;;;;;;20.69;59.40;96197.59;7395127;19;20379;-74
2023/06/14 09:31:15;;;;;;;9.20;4.07;;;;;;;20.33;58.87;96179.00;7396700;19;20475;-74
2023/06/14 09:33:49;;;;;;;3.13;2.90;;;;;;;20.30;59.83;96198.59;7395695;19;20381;-75
2023/06/14 09:36:18;;;;;;;4.17;3.87;;;;;;;19.83;62.43;96199.94;7391969;19;20411;-74
2023/06/14 09:38:55;;;;;;;7.30;4.83;;;;;;;19.33;64.56;96196.59;7395509;19;20374;-74
2023/06/14 09:41:35;;;;;;;4.90;3.60;;;;;;;19.42;64.77;96178.97;7394621;19;20378;-74
2023/06/14 09:44:04;;;;;;;4.63;4.23;;;;;;;19.39;64.67;96195.84;7398526;19;20399;-74
2023/06/14 09:46:37;;;;;;;5.07;4.67;;;;;;;19.20;65.42;96201.59;7398882;19;20422;-74
2023/06/14 09:49:05;;;;;;;5.93;4.30;;;;;;;19.40;64.62;96181.28;7399242;19;20348;-74
2023/06/14 09:51:34;;;;;;;4.50;4.20;;;;;;;19.14;65.16;96195.88;7396900;19;20375;-75
2023/06/14 09:54:06;;;;;;;4.87;4.47;;;;;;;19.72;64.74;96199.22;7396294;19;20427;-75
2023/06/14 09:56:44;;;;;;;4.83;4.40;;;;;;;19.95;63.83;96204.13;7396065;19;20367;-75
2023/06/14 09:59:13;;;;;;;4.60;4.23;;;;;;;20.12;63.40;96199.81;7406077;19;20723;-75
2023/06/14 10:01:42;;;;;;;5.17;4.03;;;;;;;19.92;62.85;96199.53;7403064;19;20363;-75
2023/06/14 10:04:10;;;;;;;4.73;4.10;;;;;;;19.64;64.41;96201.19;7399742;19;20486;-74
2023/06/14 10:06:45;;;;;;;4.30;3.87;;;;;;;19.17;64.97;96175.56;7403368;19;20378;-75
2023/06/14 10:09:14;;;;;;;11.07;3.70;;;;;;;19.13;65.60;96185.53;7401080;19;20398;-75
2023/06/14 10:11:43;;;;;;;5.43;4.47;;;;;;;19.61;66.61;96180.47;7401796;19;20370;-75
2023/06/14 10:14:14;;;;;;;4.93;4.50;;;;;;;19.56;64.34;96196.22;7399413;19;20404;-75
2023/06/14 10:17:04;;;;;;;6.73;4.87;;;;;;;19.15;64.29;96181.31;7400368;19;20416;-75
2023/06/14 10:19:35;;;;;;;5.40;4.07;;;;;;;19.27;64.14;96188.19;7398350;19;20339;-75
2023/06/14 10:22:24;;;;;;;4.27;3.97;;;;;;;18.95;63.88;96166.03;7399975;19;20379;-75
2023/06/14 10:24:51;;;;;;;4.70;4.30;;;;;;;19.36;64.72;96201.19;7400175;19;20429;-75
2023/06/14 10:27:23;;;;;;;4.30;4.00;;;;;;;19.60;63.50;96199.63;7400122;19;20383;-75
2023/06/14 10:29:53;;;;;;;4.03;3.73;;;;;;;19.79;61.32;96193.84;7398961;19;20374;-75
2023/06/14 10:32:23;;;;;;;4.53;3.60;;;;;;;19.42;63.30;96167.47;7400945;19;20411;-75
2023/06/14 10:34:56;;;;;;;4.47;3.97;;;;;;;19.18;63.91;96198.53;7397011;19;20434;-74
2023/06/14 10:37:24;;;;;;;4.57;4.17;;;;;;;19.24;63.07;96178.25;7400416;19;20756;-74
2023/06/14 10:39:51;;;;;;;6.80;3.60;;;;;;;19.62;62.41;96197.31;7399087;19;20389;-75
2023/06/14 10:42:19;;;;;;;4.27;3.90;;;;;;;19.25;61.35;96182.47;7400382;19;20346;-75
2023/06/14 10:44:51;;;;;;;6.40;3.50;;;;;;;19.86;61.73;96196.47;7397900;19;20434;-75
2023/06/14 10:47:24;;;;;;;4.67;3.33;;;;;;;20.05;60.26;96201.41;7400845;19;20436;-75
2023/06/14 10:49:53;;;;;;;4.30;3.90;;;;;;;19.62;61.11;96198.09;7401274;19;20341;-75
2023/06/14 10:52:23;;;;;;;5.50;4.10;;;;;;;19.56;61.90;96182.78;7402736;19;20455;-75
2023/06/14 10:55:08;;;;;;;3.90;3.43;;;;;;;20.20;62.10;96199.41;7398089;19;20434;-75
2023/06/14 10:57:38;;;;;;;5.27;4.10;;;;;;;20.05;61.22;96171.88;7398694;19;20359;-75
2023/06/14 11:00:26;;;;;;;3.70;3.40;;;;;;;20.08;60.54;96207.91;7400287;19;20393;-75
2023/06/14 11:03:39;;;;;;;4.00;3.60;;;;;;;20.58;61.12;96204.97;7401034;19;20886;-75
2023/06/14 11:06:13;;;;;;;3.93;3.63;;;;;;;19.98;60.08;96198.72;7398234;19;20395;-75
2023/06/14 11:09:01;;;;;;;9.03;4.10;;;;;;;20.29;60.38;96199.72;7400992;19;20376;-74
2023/06/14 11:11:34;;;;;;;8.23;3.40;;;;;;;19.82;59.10;96189.63;7401145;19;20348;-75
2023/06/14 11:14:02;;;;;;;4.17;3.83;;;;;;;19.89;59.30;96198.38;7398960;19;20944;-74
2023/06/14 11:16:32;;;;;;;6.53;4.27;;;;;;;19.74;60.84;96192.31;7398189;19;20366;-75
2023/06/14 11:19:03;;;;;;;4.43;4.07;;;;;;;20.79;59.72;96186.00;7400076;19;20377;-75
2023/06/14 11:21:33;;;;;;;4.00;3.20;;;;;;;21.36;57.33;96207.03;7400037;19;20395;-75
2023/06/14 11:24:00;;;;;;;4.47;3.80;;;;;;;21.96;56.39;96197.56;7397638;19;20427;-75
2023/06/14 11:26:34;;;;;;;8.77;3.80;;;;;;;22.40;53.59;96203.94;7401062;19;20359;-75
2023/06/14 11:29:01;;;;;;;3.97;3.67;;;;;;;22.68;53.97;96200.06;7398381;19;20347;-75
2023/06/14 11:31:28;;;;;;;3.20;3.00;;;;;;;23.44;52.47;96184.94;7396762;19;20435;-76
2023/06/14 11:33:57;;;;;;;3.83;3.53;;;;;;;23.34;52.91;96180.50;7398934;19;20397;-76
2023/06/14 11:36:29;;;;;;;4.33;3.33;;;;;;;22.78;52.92;96185.66;7395387;19;20353;-75
2023/06/14 11:39:06;;;;;;;4.03;3.47;;;;;;;22.58;54.66;96198.31;7398163;19;20352;-75